Time;durP1;ratioP1;P1;durP2;ratioP2;P2;SDS_P1;SDS_P2;PMS_P1;PMS_P2;Temp;Humidity;BMP_temperature;BMP_pressure;BME280_temperature;BME280_humidity;BME280_pressure;Samples;Min_cycle;Max_cycle;Signal;HPM_P1;HPM_P2
2022/09/03 00:00:17;;;;;;;8.88;5.55;;;14.30;87.80;;;;;;5076193;28;20211;-64
2022/09/03 00:02:51;;;;;;;10.15;6.05;;;14.30;87.90;;;;;;5072850;28;20195;-64
2022/09/03 00:05:25;;;;;;;8.82;5.38;;;14.20;88.00;;;;;;5085550;28;20558;-64
2022/09/03 00:08:02;;;;;;;6.80;4.88;;;14.20;88.00;;;;;;5072595;28;20233;-65
2022/09/03 00:10:43;;;;;;;6.20;4.53;;;14.20;88.40;;;;;;5072761;28;20202;-66
2022/09/03 00:13:17;;;;;;;6.32;4.40;;;14.10;88.60;;;;;;5072732;28;20681;-67
2022/09/03 00:15:46;;;;;;;6.80;4.55;;;14.10;88.60;;;;;;5072581;28;20205;-65
2022/09/03 00:18:19;;;;;;;5.68;3.83;;;14.00;88.50;;;;;;5072785;28;20223;-65
2022/09/03 00:20:56;;;;;;;7.15;4.47;;;14.00;88.30;;;;;;5072681;28;20183;-65
2022/09/03 00:23:28;;;;;;;5.93;4.25;;;14.00;88.60;;;;;;5075959;28;20206;-65
2022/09/03 00:26:02;;;;;;;4.93;3.53;;;13.90;88.70;;;;;;5090557;28;20198;-65
2022/09/03 00:28:38;;;;;;;4.55;2.90;;;13.90;88.80;;;;;;5096462;28;20222;-65
2022/09/03 00:31:16;;;;;;;3.85;2.63;;;13.80;88.90;;;;;;5092825;28;20643;-64
2022/09/03 00:33:48;;;;;;;3.40;2.67;;;13.80;89.40;;;;;;5096603;28;20187;-64
2022/09/03 00:36:20;;;;;;;6.80;3.28;;;13.70;89.30;;;;;;5093062;28;20198;-64
2022/09/03 00:38:50;;;;;;;4.35;3.28;;;13.70;89.50;;;;;;5078856;28;20214;-66
2022/09/03 00:41:32;;;;;;;3.63;3.28;;;13.70;89.60;;;;;;5096389;28;20202;-65
2022/09/03 00:44:34;;;;;;;5.28;3.70;;;13.60;89.90;;;;;;5096279;28;20629;-65
2022/09/03 00:47:12;;;;;;;2.78;2.28;;;13.60;90.00;;;;;;5069676;28;20714;-66
2022/09/03 00:49:53;;;;;;;5.70;2.55;;;13.60;90.10;;;;;;5075391;28;20590;-65
2022/09/03 00:52:35;;;;;;;4.40;2.38;;;13.50;90.10;;;;;;5086572;28;20195;-65
2022/09/03 00:55:12;;;;;;;4.35;2.58;;;13.50;90.10;;;;;;5075889;28;20191;-65
2022/09/03 00:57:52;;;;;;;3.15;2.50;;;13.50;90.20;;;;;;5075708;28;20218;-65
2022/09/03 01:00:21;;;;;;;3.58;3.15;;;13.50;90.40;;;;;;5076112;28;20191;-64
2022/09/03 01:03:01;;;;;;;4.65;3.03;;;13.40;90.40;;;;;;5075729;28;20191;-64
2022/09/03 01:05:41;;;;;;;4.63;2.90;;;13.40;90.40;;;;;;5075617;28;20179;-65
2022/09/03 01:08:31;;;;;;;5.00;2.50;;;13.40;90.40;;;;;;5075458;28;20219;-64
2022/09/03 01:11:18;;;;;;;3.58;2.92;;;13.40;90.30;;;;;;5076858;28;20203;-65
2022/09/03 01:13:57;;;;;;;5.07;3.00;;;13.30;90.40;;;;;;5095916;28;20562;-64
2022/09/03 01:16:30;;;;;;;4.05;2.63;;;13.30;90.50;;;;;;5080280;28;20202;-64
2022/09/03 01:19:10;;;;;;;4.32;2.65;;;13.20;90.50;;;;;;5089046;28;20215;-65
2022/09/03 01:22:02;;;;;;;7.72;3.13;;;13.20;90.40;;;;;;5095476;28;20183;-65
2022/09/03 01:25:02;;;;;;;3.17;2.42;;;13.20;90.50;;;;;;5095641;28;20183;-64
2022/09/03 01:27:42;;;;;;;6.32;3.20;;;13.20;90.70;;;;;;5093420;28;20218;-64
2022/09/03 01:30:16;;;;;;;3.35;2.50;;;13.20;90.70;;;;;;5091165;28;20289;-65
2022/09/03 01:32:54;;;;;;;4.88;2.40;;;13.10;90.80;;;;;;5087868;28;20205;-65
2022/09/03 01:35:30;;;;;;;2.90;2.38;;;13.10;90.80;;;;;;5094180;28;20198;-64
2022/09/03 01:38:08;;;;;;;2.45;2.22;;;13.10;90.90;;;;;;5095543;28;20214;-64
2022/09/03 01:40:48;;;;;;;4.53;2.30;;;13.00;90.90;;;;;;5085784;28;20653;-65
2022/09/03 01:43:34;;;;;;;3.30;2.30;;;13.00;90.90;;;;;;5075099;28;20209;-65
2022/09/03 01:46:12;;;;;;;3.47;2.73;;;13.00;90.90;;;;;;5075211;28;20566;-64
2022/09/03 01:48:48;;;;;;;2.87;2.50;;;13.00;90.90;;;;;;5074493;28;20231;-64
2022/09/03 01:51:21;;;;;;;5.37;2.30;;;12.90;90.90;;;;;;5074006;28;20204;-66
2022/09/03 01:54:14;;;;;;;4.60;2.50;;;12.90;91.20;;;;;;5074650;28;20210;-66
2022/09/03 01:57:38;;;;;;;3.23;2.87;;;12.80;91.20;;;;;;5074124;28;20199;-67
2022/09/03 02:00:12;;;;;;;4.67;2.57;;;12.80;91.30;;;;;;5074666;28;20210;-66
2022/09/03 02:02:46;;;;;;;3.87;2.53;;;12.80;91.30;;;;;;5085736;28;20198;-65
2022/09/03 02:05:19;;;;;;;3.00;2.73;;;12.70;91.30;;;;;;5094621;28;20217;-63
2022/09/03 02:07:55;;;;;;;6.33;3.27;;;12.70;91.40;;;;;;5094593;28;20222;-65
2022/09/03 02:10:30;;;;;;;4.63;3.08;;;12.70;91.50;;;;;;5091444;28;20226;-64
2022/09/03 02:13:01;;;;;;;3.80;2.63;;;12.60;91.60;;;;;;5073878;28;20191;-65
2022/09/03 02:15:33;;;;;;;4.05;3.00;;;12.60;91.70;;;;;;5074062;28;20210;-64
2022/09/03 02:18:10;;;;;;;5.60;2.83;;;12.60;91.80;;;;;;5075105;28;20223;-64
2022/09/03 02:20:40;;;;;;;3.65;2.80;;;12.60;91.80;;;;;;5073848;28;20207;-65
2022/09/03 02:23:09;;;;;;;4.60;3.17;;;12.50;91.90;;;;;;5081926;28;20210;-65
2022/09/03 02:25:40;;;;;;;4.53;3.60;;;12.50;91.90;;;;;;5093900;28;20648;-65
2022/09/03 02:28:10;;;;;;;5.93;3.60;;;12.50;92.00;;;;;;5093784;28;20226;-66
2022/09/03 02:30:46;;;;;;;4.53;3.20;;;12.50;92.10;;;;;;5092162;28;20229;-65
2022/09/03 02:33:17;;;;;;;4.00;2.90;;;12.50;92.10;;;;;;5092995;28;20201;-65
2022/09/03 02:35:46;;;;;;;4.83;3.20;;;12.50;92.10;;;;;;5094060;28;20656;-65
2022/09/03 02:38:17;;;;;;;6.20;3.13;;;12.50;92.00;;;;;;5093883;28;20223;-65
2022/09/03 02:40:46;;;;;;;3.17;2.87;;;12.40;92.10;;;;;;5089358;28;20202;-65
2022/09/03 02:43:20;;;;;;;3.63;3.07;;;12.50;92.20;;;;;;5073351;28;20218;-65
2022/09/03 02:45:59;;;;;;;3.80;3.00;;;12.40;92.20;;;;;;5073667;28;20205;-65
2022/09/03 02:48:29;;;;;;;7.57;3.53;;;12.30;92.40;;;;;;5073822;28;20248;-64
2022/09/03 02:50:58;;;;;;;3.90;3.30;;;12.30;92.40;;;;;;5078714;28;20716;-65
2022/09/03 02:53:27;;;;;;;4.67;3.47;;;12.30;92.40;;;;;;5093939;28;20213;-66
2022/09/03 02:55:59;;;;;;;6.03;3.57;;;12.30;92.60;;;;;;5091562;28;20276;-64
2022/09/03 02:58:30;;;;;;;5.57;3.17;;;12.30;92.50;;;;;;5093257;28;20234;-65
2022/09/03 03:00:59;;;;;;;5.33;3.70;;;12.30;92.50;;;;;;5076786;28;20202;-65
2022/09/03 03:03:29;;;;;;;6.77;5.00;;;12.30;92.50;;;;;;5071980;28;20195;-66
2022/09/03 03:06:01;;;;;;;5.77;4.10;;;12.20;92.50;;;;;;5073637;28;20206;-64
2022/09/03 03:08:31;;;;;;;7.03;4.50;;;12.20;92.50;;;;;;5073573;28;20281;-66
2022/09/03 03:11:00;;;;;;;5.47;3.83;;;12.20;92.60;;;;;;5072608;28;20234;-65
2022/09/03 03:13:30;;;;;;;5.87;3.67;;;12.20;92.60;;;;;;5073527;28;20199;-65
2022/09/03 03:16:01;;;;;;;5.20;3.03;;;12.20;92.60;;;;;;5073579;28;20214;-65
2022/09/03 03:18:32;;;;;;;3.70;3.07;;;12.20;92.70;;;;;;5073362;28;20231;-65
2022/09/03 03:21:04;;;;;;;3.27;2.43;;;12.10;92.80;;;;;;5086122;28;20560;-65
2022/09/03 03:23:34;;;;;;;4.67;3.20;;;12.10;92.90;;;;;;5083776;28;20238;-64
2022/09/03 03:26:03;;;;;;;3.97;2.77;;;12.00;92.90;;;;;;5073179;28;20195;-65
2022/09/03 03:28:33;;;;;;;3.63;2.77;;;12.00;92.90;;;;;;5073077;28;20218;-64
2022/09/03 03:31:06;;;;;;;2.70;2.50;;;12.00;92.90;;;;;;5073804;28;20673;-66
2022/09/03 03:33:37;;;;;;;4.20;2.93;;;12.00;92.90;;;;;;5093008;28;20199;-64
2022/09/03 03:36:07;;;;;;;3.20;2.77;;;12.00;93.00;;;;;;5093254;28;20206;-65
2022/09/03 03:38:36;;;;;;;5.23;2.93;;;11.90;93.00;;;;;;5093168;28;20214;-65
2022/09/03 03:41:10;;;;;;;3.27;2.97;;;11.90;93.00;;;;;;5091653;28;20575;-65
2022/09/03 03:43:39;;;;;;;4.00;2.73;;;11.90;93.20;;;;;;5093293;28;20187;-65
2022/09/03 03:46:09;;;;;;;3.67;2.70;;;11.90;93.30;;;;;;5078332;28;20190;-65
2022/09/03 03:48:39;;;;;;;2.97;2.67;;;11.90;93.30;;;;;;5093165;28;20211;-63
2022/09/03 03:51:10;;;;;;;4.13;2.77;;;11.90;93.60;;;;;;5093368;28;20596;-65
2022/09/03 03:53:39;;;;;;;4.53;2.73;;;11.90;93.80;;;;;;5093252;28;20190;-64
2022/09/03 03:56:10;;;;;;;3.90;2.63;;;11.80;94.00;;;;;;5082790;28;20202;-66
2022/09/03 03:58:41;;;;;;;3.80;2.90;;;11.70;94.00;;;;;;5082634;28;20225;-65
2022/09/03 04:01:12;;;;;;;3.80;2.83;;;11.70;94.30;;;;;;5083189;28;20202;-66
2022/09/03 04:03:43;;;;;;;3.00;2.50;;;11.80;94.00;;;;;;5076965;28;20191;-65
2022/09/03 04:06:14;;;;;;;4.07;2.70;;;11.80;94.00;;;;;;5085738;28;20738;-65
2022/09/03 04:08:45;;;;;;;3.00;2.70;;;11.80;94.00;;;;;;5097124;28;20206;-64
2022/09/03 04:11:16;;;;;;;3.60;2.53;;;11.80;94.10;;;;;;5086093;28;20223;-64
2022/09/03 04:13:46;;;;;;;2.70;2.50;;;11.70;94.10;;;;;;5076678;28;20183;-66
2022/09/03 04:16:16;;;;;;;4.10;2.30;;;11.70;94.10;;;;;;5076453;28;20550;-64
2022/09/03 04:18:48;;;;;;;2.87;2.57;;;11.70;94.10;;;;;;5083712;28;20214;-64
2022/09/03 04:21:19;;;;;;;2.80;2.27;;;11.80;94.10;;;;;;5096756;28;20565;-65
2022/09/03 04:23:50;;;;;;;3.23;2.27;;;11.80;94.00;;;;;;5096630;28;20203;-64
2022/09/03 04:26:21;;;;;;;4.07;2.40;;;11.80;94.00;;;;;;5094768;28;20199;-64
2022/09/03 04:28:50;;;;;;;5.60;2.60;;;11.70;94.00;;;;;;5076305;28;20211;-64
2022/09/03 04:31:21;;;;;;;3.80;2.57;;;11.70;94.10;;;;;;5082264;28;20217;-65
2022/09/03 04:33:51;;;;;;;2.43;2.23;;;11.70;94.10;;;;;;5089541;28;20206;-64
2022/09/03 04:36:22;;;;;;;3.10;2.37;;;11.60;94.10;;;;;;5074951;28;20550;-64
2022/09/03 04:38:52;;;;;;;2.90;2.47;;;11.60;94.20;;;;;;5076195;28;20219;-65
2022/09/03 04:41:24;;;;;;;3.03;2.60;;;11.60;94.20;;;;;;5076058;28;20672;-64
2022/09/03 04:43:54;;;;;;;4.10;2.70;;;11.50;94.40;;;;;;5079566;28;20198;-64
2022/09/03 04:46:26;;;;;;;3.07;2.50;;;11.50;94.40;;;;;;5088883;28;20195;-63
2022/09/03 04:48:56;;;;;;;2.70;2.47;;;11.50;94.50;;;;;;5076120;28;20551;-64
2022/09/03 04:51:27;;;;;;;40.40;28.10;;;11.50;94.50;;;;;;5075104;28;20600;-64
2022/09/03 04:53:57;;;;;;;26.90;19.00;;;11.60;94.50;;;;;;5075091;28;20192;-66
2022/09/03 04:56:28;;;;;;;4.47;4.07;;;11.50;94.50;;;;;;5095387;28;20213;-65
2022/09/03 04:58:58;;;;;;;9.50;8.50;;;11.50;94.50;;;;;;5081142;28;20700;-65
2022/09/03 05:01:31;;;;;;;6.17;5.27;;;11.60;94.50;;;;;;5083967;28;20199;-64
2022/09/03 05:04:01;;;;;;;4.07;3.20;;;11.60;94.50;;;;;;5093077;28;20202;-64
2022/09/03 05:06:31;;;;;;;4.43;2.93;;;11.60;94.60;;;;;;5096052;28;20191;-64
2022/09/03 05:09:01;;;;;;;4.53;3.00;;;11.50;94.60;;;;;;5094820;28;20598;-65
2022/09/03 05:11:30;;;;;;;4.20;2.33;;;11.60;94.60;;;;;;5081996;28;20215;-64
2022/09/03 05:13:59;;;;;;;3.40;2.83;;;11.60;94.70;;;;;;5089230;28;20569;-65
2022/09/03 05:16:29;;;;;;;6.10;2.77;;;11.60;94.70;;;;;;5087357;28;20202;-64
2022/09/03 05:19:04;;;;;;;4.60;2.70;;;11.60;94.80;;;;;;5075978;28;20219;-64
2022/09/03 05:21:35;;;;;;;3.33;2.47;;;11.50;95.10;;;;;;5075768;28;20581;-65
2022/09/03 05:24:05;;;;;;;4.00;2.87;;;11.60;94.90;;;;;;5075517;28;20792;-66
2022/09/03 05:26:37;;;;;;;3.40;2.90;;;11.50;94.90;;;;;;5074481;28;20206;-63
2022/09/03 05:29:07;;;;;;;5.13;3.50;;;11.60;94.90;;;;;;5075131;28;20223;-65
2022/09/03 05:31:38;;;;;;;5.47;3.73;;;11.60;95.10;;;;;;5078775;28;20221;-65
2022/09/03 05:34:09;;;;;;;7.13;5.40;;;11.60;95.00;;;;;;5094282;28;20205;-65
2022/09/03 05:36:47;;;;;;;7.80;6.23;;;11.60;95.00;;;;;;5094421;28;20649;-63
2022/09/03 05:39:16;;;;;;;8.10;4.90;;;11.60;95.20;;;;;;5086528;28;20194;-65
2022/09/03 05:41:45;;;;;;;9.83;6.60;;;11.60;95.30;;;;;;5095277;28;20217;-65
2022/09/03 05:44:14;;;;;;;16.10;11.80;;;11.70;95.40;;;;;;5095225;28;20200;-64
2022/09/03 05:46:42;;;;;;;8.00;5.63;;;11.80;95.50;;;;;;5088851;28;20198;-65
2022/09/03 05:49:13;;;;;;;13.30;9.47;;;11.80;95.60;;;;;;5084901;28;20209;-65
2022/09/03 05:51:42;;;;;;;13.07;9.63;;;11.90;95.80;;;;;;5095311;28;20693;-65
2022/09/03 05:54:11;;;;;;;15.13;9.87;;;11.90;96.00;;;;;;5084518;28;20210;-66
2022/09/03 05:56:41;;;;;;;14.13;8.30;;;12.10;96.30;;;;;;5093734;28;20202;-66
2022/09/03 05:59:12;;;;;;;6.37;5.50;;;12.10;96.30;;;;;;5095167;28;20210;-66
2022/09/03 06:01:44;;;;;;;9.60;5.87;;;12.20;96.20;;;;;;5092513;28;20203;-66
2022/09/03 06:04:20;;;;;;;8.10;4.30;;;12.20;96.10;;;;;;5094880;28;20190;-65
2022/09/03 06:06:49;;;;;;;5.53;4.93;;;12.30;96.20;;;;;;5094724;28;20641;-65
2022/09/03 06:09:20;;;;;;;6.27;4.57;;;12.30;96.20;;;;;;5094622;28;20205;-64
2022/09/03 06:11:52;;;;;;;4.13;3.73;;;12.40;96.10;;;;;;5081336;28;20211;-65
2022/09/03 06:14:21;;;;;;;4.53;3.50;;;12.50;96.20;;;;;;5085188;28;20205;-64
2022/09/03 06:16:51;;;;;;;5.17;3.50;;;12.60;96.30;;;;;;5081192;28;20196;-64
2022/09/03 06:19:22;;;;;;;5.97;3.53;;;12.60;96.30;;;;;;5074206;28;20649;-65
2022/09/03 06:21:50;;;;;;;6.27;3.90;;;12.60;96.40;;;;;;5073975;28;20206;-65
2022/09/03 06:24:22;;;;;;;3.73;3.07;;;12.70;96.60;;;;;;5085278;28;20201;-65
2022/09/03 06:26:54;;;;;;;3.27;2.87;;;12.70;96.70;;;;;;5094303;28;20182;-65
2022/09/03 06:29:23;;;;;;;3.85;2.78;;;12.80;96.70;;;;;;5093118;28;20198;-65
2022/09/03 06:31:51;;;;;;;4.15;2.55;;;12.90;96.70;;;;;;5091050;28;20218;-67
2022/09/03 06:34:24;;;;;;;3.13;2.63;;;13.00;96.80;;;;;;5073502;28;20206;-65
2022/09/03 06:36:53;;;;;;;3.55;2.70;;;13.10;96.70;;;;;;5073898;28;20183;-65
2022/09/03 06:39:23;;;;;;;3.75;2.50;;;13.30;96.90;;;;;;5074121;28;20555;-65
2022/09/03 06:41:52;;;;;;;4.60;2.20;;;13.40;96.90;;;;;;5074394;28;20206;-65
2022/09/03 06:44:27;;;;;;;2.65;2.25;;;13.60;96.70;;;;;;5080047;28;20213;-64
2022/09/03 06:47:00;;;;;;;3.97;2.15;;;13.70;96.40;;;;;;5087175;28;20224;-65
2022/09/03 06:49:30;;;;;;;4.18;2.20;;;13.80;96.50;;;;;;5094025;28;20187;-65
2022/09/03 06:51:59;;;;;;;5.40;2.47;;;13.90;96.50;;;;;;5091348;28;20198;-65
2022/09/03 06:54:28;;;;;;;4.05;2.30;;;14.20;96.50;;;;;;5086147;28;20224;-65
2022/09/03 06:56:57;;;;;;;4.22;2.33;;;14.30;96.10;;;;;;5093653;28;20694;-65
2022/09/03 06:59:27;;;;;;;2.20;2.00;;;14.50;95.80;;;;;;5093717;28;20676;-66
2022/09/03 07:01:57;;;;;;;3.03;2.10;;;14.60;95.60;;;;;;5079117;28;20213;-65
2022/09/03 07:04:26;;;;;;;3.13;2.10;;;14.70;96.00;;;;;;5093813;28;20187;-66
2022/09/03 07:06:58;;;;;;;3.00;2.30;;;14.70;95.70;;;;;;5093557;28;20542;-65
2022/09/03 07:09:26;;;;;;;3.00;1.80;;;14.80;95.40;;;;;;5093677;28;20210;-65
2022/09/03 07:11:55;;;;;;;5.13;2.33;;;15.00;95.40;;;;;;5086086;28;20209;-66
2022/09/03 07:14:24;;;;;;;3.03;2.00;;;15.10;95.50;;;;;;5093537;28;20218;-64
2022/09/03 07:16:54;;;;;;;2.72;2.10;;;15.30;95.20;;;;;;5074633;28;20202;-66
2022/09/03 07:19:23;;;;;;;4.25;2.72;;;15.50;94.40;;;;;;5075554;28;20195;-65
2022/09/03 07:21:52;;;;;;;3.67;1.70;;;15.70;94.70;;;;;;5073043;28;20195;-64
2022/09/03 07:24:22;;;;;;;1.70;1.60;;;16.20;92.10;;;;;;5073376;28;20535;-67
2022/09/03 07:26:51;;;;;;;3.47;1.70;;;16.40;91.50;;;;;;5073213;28;20191;-66
2022/09/03 07:29:20;;;;;;;2.53;1.77;;;16.60;90.60;;;;;;5072980;28;20199;-65
2022/09/03 07:31:51;;;;;;;2.47;1.60;;;16.60;89.80;;;;;;5074371;28;20689;-65
2022/09/03 07:34:23;;;;;;;4.60;1.50;;;16.70;90.10;;;;;;5072473;28;20215;-65
2022/09/03 07:36:54;;;;;;;3.60;1.77;;;16.80;89.40;;;;;;5073267;28;20194;-64
2022/09/03 07:39:24;;;;;;;4.05;1.50;;;16.80;89.50;;;;;;5072422;28;20194;-66
2022/09/03 07:41:53;;;;;;;3.80;1.65;;;16.90;89.20;;;;;;5073003;28;20198;-65
2022/09/03 07:44:23;;;;;;;2.97;2.00;;;17.20;88.70;;;;;;5072218;28;20557;-65
2022/09/03 07:46:52;;;;;;;3.60;1.90;;;17.50;87.70;;;;;;5073976;28;20202;-65
2022/09/03 07:49:21;;;;;;;4.15;1.70;;;17.60;88.20;;;;;;5093118;28;20216;-65
2022/09/03 07:51:52;;;;;;;4.00;1.80;;;17.80;86.20;;;;;;5091953;28;20191;-65
2022/09/03 07:54:22;;;;;;;3.38;1.48;;;17.90;86.30;;;;;;5070526;28;20230;-67
2022/09/03 07:56:53;;;;;;;1.90;1.60;;;17.90;84.90;;;;;;5072993;28;20537;-65
2022/09/03 07:59:24;;;;;;;5.25;1.60;;;17.90;84.90;;;;;;5072884;28;20676;-66
2022/09/03 08:01:53;;;;;;;4.78;1.70;;;17.70;84.90;;;;;;5079080;28;20699;-66
2022/09/03 08:04:22;;;;;;;2.63;1.65;;;17.60;85.80;;;;;;5080628;28;20571;-66
2022/09/03 08:06:54;;;;;;;3.17;1.40;;;17.50;85.60;;;;;;5090579;28;20205;-65
2022/09/03 08:09:23;;;;;;;2.35;1.50;;;17.50;86.00;;;;;;5073342;28;20210;-65
2022/09/03 08:11:53;;;;;;;2.13;1.50;;;17.50;85.80;;;;;;5072066;28;20587;-66
2022/09/03 08:14:22;;;;;;;2.35;1.45;;;17.40;86.50;;;;;;5072698;28;20227;-66
2022/09/03 08:16:51;;;;;;;4.22;1.58;;;17.50;86.30;;;;;;5082600;28;20206;-65
2022/09/03 08:19:21;;;;;;;4.35;1.70;;;17.50;86.30;;;;;;5072261;28;20198;-66
2022/09/03 08:21:49;;;;;;;2.53;1.33;;;17.50;86.20;;;;;;5071834;28;20218;-65
2022/09/03 08:24:20;;;;;;;2.90;1.80;;;17.40;85.90;;;;;;5072566;28;20195;-65
2022/09/03 08:26:48;;;;;;;1.73;1.38;;;17.50;85.90;;;;;;5071479;28;20192;-65
2022/09/03 08:29:21;;;;;;;4.57;1.70;;;17.50;86.50;;;;;;5073808;28;20559;-65
2022/09/03 08:31:50;;;;;;;3.72;1.45;;;17.50;85.70;;;;;;5081015;28;20207;-65
2022/09/03 08:34:20;;;;;;;2.83;1.30;;;17.50;86.20;;;;;;5092488;28;20223;-67
2022/09/03 08:36:49;;;;;;;1.83;1.35;;;17.60;86.40;;;;;;5092581;28;20198;-64
2022/09/03 08:39:18;;;;;;;3.85;1.50;;;17.70;86.50;;;;;;5092617;28;20554;-65
2022/09/03 08:42:20;;;;;;;3.17;1.80;;;17.70;85.70;;;;;;5083628;28;20210;-65
2022/09/03 08:44:55;;;;;;;2.65;1.73;;;17.70;86.30;;;;;;5066331;28;20202;-64
2022/09/03 08:47:29;;;;;;;2.67;1.40;;;17.70;85.60;;;;;;5085669;28;20245;-65
2022/09/03 08:50:03;;;;;;;4.35;1.70;;;17.70;86.90;;;;;;5096161;28;20195;-66
2022/09/03 08:52:36;;;;;;;2.08;1.40;;;17.80;86.20;;;;;;5087100;28;20195;-64
2022/09/03 08:55:17;;;;;;;1.30;1.20;;;18.00;86.10;;;;;;5095059;28;20214;-65
2022/09/03 08:57:49;;;;;;;2.85;1.30;;;18.30;85.20;;;;;;5096203;28;20214;-66
2022/09/03 09:00:20;;;;;;;4.20;1.40;;;18.60;84.70;;;;;;5082433;28;20199;-67
2022/09/03 09:03:29;;;;;;;4.78;1.60;;;18.80;84.00;;;;;;5075677;28;20194;-65
2022/09/03 09:06:08;;;;;;;4.10;1.70;;;19.10;83.30;;;;;;5073240;28;20207;-64
2022/09/03 09:08:46;;;;;;;3.95;1.60;;;19.30;82.70;;;;;;5093367;28;20600;-65
2022/09/03 09:11:26;;;;;;;4.93;2.13;;;19.60;83.40;;;;;;5087852;28;20195;-65
2022/09/03 09:14:02;;;;;;;3.50;1.70;;;19.80;81.50;;;;;;5075512;28;20211;-65
2022/09/03 09:16:40;;;;;;;2.97;1.85;;;19.90;80.90;;;;;;5075311;28;20195;-66
2022/09/03 09:19:22;;;;;;;2.17;1.42;;;20.10;80.10;;;;;;5082002;28;20699;-66
2022/09/03 09:21:57;;;;;;;3.35;1.70;;;20.30;80.50;;;;;;5090448;28;20217;-65
2022/09/03 09:24:28;;;;;;;4.85;1.40;;;20.60;80.80;;;;;;5095586;28;20186;-66
2022/09/03 09:27:01;;;;;;;3.50;1.83;;;20.90;79.40;;;;;;5095584;28;20182;-66
2022/09/03 09:29:33;;;;;;;3.42;1.40;;;21.20;78.50;;;;;;5084618;28;20232;-66
2022/09/03 09:32:07;;;;;;;5.35;1.75;;;21.20;78.90;;;;;;5085093;28;20194;-66
2022/09/03 09:34:36;;;;;;;4.30;1.70;;;21.30;78.70;;;;;;5084071;28;20689;-65
2022/09/03 09:37:12;;;;;;;3.17;1.30;;;21.40;77.70;;;;;;5075129;28;20563;-66
2022/09/03 09:39:41;;;;;;;3.60;1.77;;;21.40;78.90;;;;;;5074989;28;20186;-65
2022/09/03 09:42:12;;;;;;;1.48;1.30;;;21.40;77.50;;;;;;5075069;28;20195;-66
2022/09/03 09:44:42;;;;;;;2.70;1.30;;;21.40;78.10;;;;;;5081690;28;20206;-66
2022/09/03 09:47:22;;;;;;;1.77;1.45;;;21.40;79.00;;;;;;5095081;28;20206;-66
2022/09/03 09:49:55;;;;;;;3.33;2.00;;;21.40;78.40;;;;;;5093653;28;20497;-64
2022/09/03 09:52:28;;;;;;;4.22;1.50;;;21.50;79.40;;;;;;5074741;28;20661;-65
2022/09/03 09:55:07;;;;;;;2.97;1.50;;;21.50;79.70;;;;;;5074746;28;20705;-65
2022/09/03 09:57:38;;;;;;;2.78;1.40;;;21.60;78.70;;;;;;5074571;28;20222;-66
2022/09/03 10:00:11;;;;;;;2.55;1.50;;;21.80;78.80;;;;;;5073640;28;20203;-66
2022/09/03 10:02:48;;;;;;;4.00;1.70;;;22.00;79.20;;;;;;5073758;28;20225;-66
2022/09/03 10:05:22;;;;;;;1.70;1.23;;;22.20;76.70;;;;;;5080440;28;20190;-66
2022/09/03 10:07:59;;;;;;;5.72;1.88;;;22.40;76.60;;;;;;5080360;28;20222;-65
2022/09/03 10:10:36;;;;;;;2.28;1.50;;;22.70;79.50;;;;;;5074164;28;20198;-66
2022/09/03 10:13:09;;;;;;;2.45;1.60;;;23.00;76.00;;;;;;5076356;28;20207;-65
2022/09/03 10:15:45;;;;;;;2.17;1.60;;;23.00;76.00;;;;;;5073765;28;20218;-66
2022/09/03 10:18:27;;;;;;;3.55;1.50;;;23.10;75.50;;;;;;5073457;28;20225;-66
2022/09/03 10:21:05;;;;;;;4.03;1.55;;;23.00;74.70;;;;;;5073455;28;20567;-67
2022/09/03 10:23:43;;;;;;;2.25;1.50;;;22.90;75.70;;;;;;5074236;28;20191;-66
2022/09/03 10:26:13;;;;;;;2.80;1.50;;;22.90;76.00;;;;;;5074184;28;20205;-66
2022/09/03 10:28:44;;;;;;;2.20;1.73;;;22.90;76.00;;;;;;5073726;28;20219;-66
2022/09/03 10:31:33;;;;;;;4.30;1.60;;;22.80;77.00;;;;;;5073975;28;20548;-66
2022/09/03 10:34:12;;;;;;;2.55;1.70;;;22.90;75.50;;;;;;5072741;28;20183;-65
2022/09/03 10:36:52;;;;;;;3.88;1.90;;;22.90;75.40;;;;;;5073161;28;20215;-65
2022/09/03 10:39:26;;;;;;;3.58;1.70;;;22.80;75.70;;;;;;5073177;28;20202;-66
2022/09/03 10:42:08;;;;;;;3.28;1.70;;;22.80;76.80;;;;;;5076799;28;20198;-66
2022/09/03 10:45:00;;;;;;;2.88;1.80;;;22.70;77.20;;;;;;5082543;28;20195;-66
2022/09/03 10:47:44;;;;;;;4.03;1.90;;;22.60;76.00;;;;;;5093965;28;20218;-65
2022/09/03 10:50:20;;;;;;;3.10;1.75;;;22.50;76.80;;;;;;5084553;28;20202;-66
2022/09/03 10:53:06;;;;;;;4.18;1.60;;;22.50;76.50;;;;;;5073649;28;20195;-66
2022/09/03 10:55:46;;;;;;;4.13;2.00;;;22.50;77.20;;;;;;5073472;28;20700;-66
2022/09/03 10:58:44;;;;;;;1.70;1.60;;;22.50;77.30;;;;;;5073364;28;20225;-65
2022/09/03 11:01:20;;;;;;;3.67;1.65;;;22.70;78.40;;;;;;5081354;28;20194;-67
2022/09/03 11:03:58;;;;;;;4.25;1.90;;;22.70;78.10;;;;;;5093842;28;20659;-66
2022/09/03 11:06:30;;;;;;;4.53;1.60;;;22.90;78.30;;;;;;5090672;28;20195;-66
2022/09/03 11:09:02;;;;;;;2.38;1.77;;;23.30;76.70;;;;;;5088091;28;20214;-66
2022/09/03 11:11:38;;;;;;;3.13;1.77;;;23.60;77.10;;;;;;5087948;28;20281;-65
2022/09/03 11:14:09;;;;;;;4.30;1.70;;;24.00;76.50;;;;;;5088305;28;20198;-65
2022/09/03 11:16:43;;;;;;;2.58;1.60;;;24.20;76.10;;;;;;5093413;28;20214;-66
2022/09/03 11:19:17;;;;;;;2.20;1.70;;;24.10;77.20;;;;;;5085269;28;20214;-66
2022/09/03 11:21:49;;;;;;;3.05;1.90;;;24.30;76.90;;;;;;5084412;28;20218;-67
2022/09/03 11:24:22;;;;;;;3.42;2.00;;;24.70;74.60;;;;;;5073422;28;20230;-65
2022/09/03 11:26:57;;;;;;;2.88;1.77;;;25.10;74.50;;;;;;5073354;28;20187;-67
2022/09/03 11:29:36;;;;;;;4.43;2.03;;;25.50;73.80;;;;;;5072390;28;20201;-66
2022/09/03 11:32:10;;;;;;;3.05;2.10;;;25.60;73.10;;;;;;5073321;28;20183;-66
2022/09/03 11:34:47;;;;;;;4.85;2.05;;;25.50;72.50;;;;;;5073141;28;20191;-68
2022/09/03 11:37:20;;;;;;;4.43;1.90;;;25.70;74.60;;;;;;5072885;28;20241;-66
2022/09/03 11:39:59;;;;;;;5.03;1.90;;;26.00;72.80;;;;;;5072802;28;20195;-67
2022/09/03 11:42:31;;;;;;;2.30;1.73;;;26.30;72.40;;;;;;5073580;28;20202;-66
2022/09/03 11:45:13;;;;;;;4.60;2.17;;;26.60;71.50;;;;;;5090241;28;20197;-66
2022/09/03 11:47:43;;;;;;;4.10;2.33;;;26.80;71.80;;;;;;5091607;28;20214;-67
2022/09/03 11:50:21;;;;;;;3.22;1.88;;;26.90;69.70;;;;;;5073172;28;20210;-66
2022/09/03 11:52:53;;;;;;;3.10;2.22;;;27.00;71.10;;;;;;5072795;28;20567;-67
2022/09/03 11:55:29;;;;;;;2.27;2.00;;;27.30;70.70;;;;;;5074779;28;20641;-66
2022/09/03 11:58:12;;;;;;;3.65;2.10;;;27.60;69.10;;;;;;5083652;28;20222;-66
2022/09/03 12:00:44;;;;;;;6.22;2.30;;;27.80;69.30;;;;;;5086643;28;20191;-66
2022/09/03 12:03:17;;;;;;;4.00;1.90;;;27.70;68.30;;;;;;5080770;28;20206;-66
2022/09/03 12:06:04;;;;;;;4.50;2.65;;;27.40;69.30;;;;;;5072931;28;20179;-66
2022/09/03 12:08:55;;;;;;;4.03;2.50;;;27.40;69.70;;;;;;5072776;28;20211;-66
2022/09/03 12:11:38;;;;;;;2.33;2.03;;;27.30;70.00;;;;;;5072734;28;20199;-66
2022/09/03 12:14:13;;;;;;;3.58;2.40;;;27.30;70.80;;;;;;5072738;28;20642;-66
2022/09/03 12:16:57;;;;;;;2.83;2.20;;;27.20;70.70;;;;;;5073248;28;20297;-66
2022/09/03 12:19:35;;;;;;;4.15;2.30;;;26.90;70.90;;;;;;5076682;28;20199;-66
2022/09/03 12:22:05;;;;;;;3.10;2.22;;;26.80;71.70;;;;;;5078968;28;20202;-66
2022/09/03 12:24:36;;;;;;;3.85;2.15;;;26.40;72.00;;;;;;5096720;28;20191;-66
2022/09/03 12:27:08;;;;;;;3.40;2.40;;;26.10;72.50;;;;;;5082112;28;20191;-66
2022/09/03 12:29:39;;;;;;;3.88;2.22;;;25.80;73.60;;;;;;5094909;28;20202;-66
2022/09/03 12:32:11;;;;;;;2.97;2.60;;;25.40;74.10;;;;;;5096205;28;20186;-65
2022/09/03 12:34:40;;;;;;;5.45;3.72;;;25.30;74.50;;;;;;5087112;28;20197;-66
2022/09/03 12:37:21;;;;;;;3.05;2.33;;;25.30;74.40;;;;;;5096380;28;20692;-66
2022/09/03 12:40:20;;;;;;;4.65;2.58;;;25.50;74.40;;;;;;5090353;28;20564;-66
2022/09/03 12:42:49;;;;;;;2.95;2.50;;;25.80;74.90;;;;;;5075480;28;20186;-65
2022/09/03 12:45:22;;;;;;;4.45;2.33;;;25.80;73.90;;;;;;5094741;28;20677;-68
2022/09/03 12:47:52;;;;;;;4.25;2.72;;;25.80;73.80;;;;;;5085557;28;20227;-65
2022/09/03 12:50:22;;;;;;;3.35;2.50;;;25.80;73.40;;;;;;5075485;28;20203;-65
2022/09/03 12:52:53;;;;;;;5.55;2.50;;;25.60;73.70;;;;;;5076219;28;20202;-65
2022/09/03 12:55:33;;;;;;;3.13;2.65;;;25.30;74.30;;;;;;5075886;28;20193;-66
2022/09/03 12:58:07;;;;;;;4.75;3.17;;;25.00;74.80;;;;;;5086501;28;20236;-65
2022/09/03 13:00:45;;;;;;;4.63;2.75;;;24.80;75.50;;;;;;5096151;28;20186;-66
2022/09/03 13:03:19;;;;;;;4.43;2.88;;;24.60;76.10;;;;;;5091536;28;20203;-66
2022/09/03 13:05:52;;;;;;;2.80;2.55;;;24.50;76.50;;;;;;5072589;28;20202;-67
2022/09/03 13:08:24;;;;;;;3.42;3.13;;;24.40;77.20;;;;;;5075574;28;20309;-65
2022/09/03 13:10:58;;;;;;;2.83;2.55;;;24.30;77.40;;;;;;5075121;28;20198;-66
2022/09/03 13:13:28;;;;;;;4.95;2.45;;;24.30;77.10;;;;;;5075646;28;20550;-66
2022/09/03 13:16:14;;;;;;;3.15;2.85;;;24.30;77.10;;;;;;5075519;28;20203;-66
2022/09/03 13:18:49;;;;;;;5.57;2.92;;;24.20;77.60;;;;;;5075344;28;20234;-66